Time;durP1;ratioP1;P1;durP2;ratioP2;P2;SDS_P1;SDS_P2;PMS_P1;PMS_P2;Temp;Humidity;BMP_temperature;BMP_pressure;BME280_temperature;BME280_humidity;BME280_pressure;Samples;Min_cycle;Max_cycle;Signal;HPM_P1;HPM_P2
2022/03/11 00:02:11;;;;;;;16.55;13.07;;;;;;;;;;5052480;28;20447;-68
2022/03/11 00:04:38;;;;;;;16.50;12.00;;;;;;;;;;5052560;28;20045;-69
2022/03/11 00:07:05;;;;;;;17.08;11.82;;;;;;;;;;5052715;28;20048;-69
2022/03/11 00:09:31;;;;;;;15.23;12.20;;;;;;;;;;5053458;28;20048;-68
2022/03/11 00:11:58;;;;;;;16.42;12.18;;;;;;;;;;5053486;28;20443;-68
2022/03/11 00:14:24;;;;;;;18.02;12.60;;;;;;;;;;5053601;28;20057;-68
2022/03/11 00:16:50;;;;;;;16.83;12.85;;;;;;;;;;5053173;28;20378;-68
2022/03/11 00:19:17;;;;;;;18.60;13.25;;;;;;;;;;5053862;28;20080;-68
2022/03/11 00:21:44;;;;;;;16.02;12.55;;;;;;;;;;5049980;28;20485;-68
2022/03/11 00:24:10;;;;;;;16.67;13.27;;;;;;;;;;5053652;28;20106;-68
2022/03/11 00:26:37;;;;;;;16.70;12.82;;;;;;;;;;5053400;28;20563;-68
2022/03/11 00:29:02;;;;;;;15.15;12.50;;;;;;;;;;5053666;28;20032;-69
2022/03/11 00:31:28;;;;;;;15.23;12.15;;;;;;;;;;5053354;28;20179;-68
2022/03/11 00:33:55;;;;;;;14.07;11.45;;;;;;;;;;5053473;28;20099;-68
2022/03/11 00:36:22;;;;;;;14.80;11.32;;;;;;;;;;5053147;28;20045;-68
2022/03/11 00:38:49;;;;;;;15.95;11.50;;;;;;;;;;5053192;28;20103;-68
2022/03/11 00:41:16;;;;;;;18.17;11.98;;;;;;;;;;5053407;28;20094;-68
2022/03/11 00:43:43;;;;;;;14.68;11.95;;;;;;;;;;5053100;28;20053;-68
2022/03/11 00:46:09;;;;;;;13.75;11.40;;;;;;;;;;5052976;28;20102;-68
2022/03/11 00:48:36;;;;;;;16.73;11.77;;;;;;;;;;5053282;28;20052;-68
2022/03/11 00:51:02;;;;;;;14.25;11.90;;;;;;;;;;5052741;28;20052;-68
2022/03/11 00:53:29;;;;;;;14.13;11.00;;;;;;;;;;5052842;28;20052;-68
2022/03/11 00:55:55;;;;;;;13.48;11.70;;;;;;;;;;5052780;28;20048;-68
2022/03/11 00:58:22;;;;;;;14.50;11.93;;;;;;;;;;5052870;28;20044;-68
2022/03/11 01:00:48;;;;;;;13.93;11.63;;;;;;;;;;5053075;28;20099;-68
2022/03/11 01:03:15;;;;;;;15.57;10.73;;;;;;;;;;5052911;28;20090;-68
2022/03/11 01:05:41;;;;;;;12.82;10.90;;;;;;;;;;5052430;28;20517;-69
2022/03/11 01:08:08;;;;;;;13.18;10.90;;;;;;;;;;5052837;28;20049;-69
2022/03/11 01:10:34;;;;;;;12.88;10.40;;;;;;;;;;5052468;28;20455;-69
2022/03/11 01:13:01;;;;;;;13.25;10.82;;;;;;;;;;5052690;28;20053;-69
2022/03/11 01:15:27;;;;;;;13.10;10.88;;;;;;;;;;5050169;28;20044;-69
2022/03/11 01:17:54;;;;;;;12.98;10.27;;;;;;;;;;5041283;28;20072;-69
2022/03/11 01:20:20;;;;;;;14.93;10.05;;;;;;;;;;5049101;28;20049;-68
2022/03/11 01:22:47;;;;;;;13.65;9.90;;;;;;;;;;5052525;28;20056;-69
2022/03/11 01:25:13;;;;;;;12.85;10.05;;;;;;;;;;5052272;28;20493;-68
2022/03/11 01:27:40;;;;;;;12.48;9.93;;;;;;;;;;5051746;28;20563;-68
2022/03/11 01:30:09;;;;;;;12.07;9.23;;;;;;;;;;5052001;28;20049;-68
2022/03/11 01:32:36;;;;;;;11.93;9.60;;;;;;;;;;5050856;28;20048;-68
2022/03/11 01:35:03;;;;;;;12.73;9.45;;;;;;;;;;5052383;28;20126;-68
2022/03/11 01:37:29;;;;;;;12.27;9.00;;;;;;;;;;5052201;28;20052;-69
2022/03/11 01:39:55;;;;;;;11.40;9.55;;;;;;;;;;5052187;28;20045;-68
2022/03/11 01:42:22;;;;;;;11.65;8.75;;;;;;;;;;5052038;28;20045;-69
2022/03/11 01:44:48;;;;;;;11.18;8.23;;;;;;;;;;5052293;28;20037;-69
2022/03/11 01:47:15;;;;;;;10.45;8.70;;;;;;;;;;5052160;28;20048;-68
2022/03/11 01:49:41;;;;;;;10.20;8.85;;;;;;;;;;5052069;28;20049;-69
2022/03/11 01:52:09;;;;;;;10.68;8.13;;;;;;;;;;5051715;28;20053;-69
2022/03/11 01:54:35;;;;;;;11.77;9.18;;;;;;;;;;5040906;28;20146;-69
2022/03/11 01:57:02;;;;;;;11.00;8.40;;;;;;;;;;5044601;28;20094;-69
2022/03/11 01:59:28;;;;;;;13.95;8.52;;;;;;;;;;5050361;28;20048;-68
2022/03/11 02:01:55;;;;;;;11.60;8.23;;;;;;;;;;5051979;28;20098;-68
2022/03/11 02:04:21;;;;;;;9.02;7.57;;;;;;;;;;5051956;28;20052;-69
2022/03/11 02:06:49;;;;;;;7.75;6.95;;;;;;;;;;5051440;28;20053;-68
2022/03/11 02:09:15;;;;;;;8.15;6.70;;;;;;;;;;5051779;28;20041;-68
2022/03/11 02:11:42;;;;;;;13.88;7.03;;;;;;;;;;5051673;28;20569;-68
2022/03/11 02:14:08;;;;;;;7.30;6.60;;;;;;;;;;5051769;28;20110;-68
2022/03/11 02:16:37;;;;;;;7.82;6.88;;;;;;;;;;5051673;28;20122;-68
2022/03/11 02:19:05;;;;;;;7.53;6.32;;;;;;;;;;5051435;28;20080;-68
2022/03/11 02:21:36;;;;;;;8.38;6.63;;;;;;;;;;5048009;28;20053;-68
2022/03/11 02:24:02;;;;;;;8.48;6.95;;;;;;;;;;5051421;28;20048;-68
2022/03/11 02:26:29;;;;;;;9.18;6.88;;;;;;;;;;5051438;28;20045;-68
2022/03/11 02:28:57;;;;;;;8.18;6.72;;;;;;;;;;5050084;28;20501;-68
2022/03/11 02:31:24;;;;;;;9.35;7.53;;;;;;;;;;5051644;28;20053;-68
2022/03/11 02:33:51;;;;;;;10.05;7.07;;;;;;;;;;5051664;28;20126;-68
2022/03/11 02:36:18;;;;;;;11.50;7.68;;;;;;;;;;5051605;28;20049;-68
2022/03/11 02:38:45;;;;;;;9.87;6.93;;;;;;;;;;5051659;28;20049;-68
2022/03/11 02:41:11;;;;;;;8.63;7.38;;;;;;;;;;5054956;28;20340;-68
2022/03/11 02:43:38;;;;;;;9.88;7.00;;;;;;;;;;5055303;28;20045;-68
2022/03/11 02:46:04;;;;;;;9.48;6.38;;;;;;;;;;5055519;28;20464;-68
2022/03/11 02:48:31;;;;;;;10.95;7.00;;;;;;;;;;5055164;28;20550;-68
2022/03/11 02:50:57;;;;;;;8.43;6.78;;;;;;;;;;5055053;28;20562;-68
2022/03/11 02:53:24;;;;;;;10.18;6.38;;;;;;;;;;5055172;28;20052;-68
2022/03/11 02:55:50;;;;;;;9.90;6.80;;;;;;;;;;5055091;28;20049;-68
2022/03/11 02:58:17;;;;;;;9.32;6.63;;;;;;;;;;5055217;28;20045;-68
2022/03/11 03:00:43;;;;;;;9.52;7.10;;;;;;;;;;5055052;28;20053;-68
2022/03/11 03:03:10;;;;;;;10.27;6.72;;;;;;;;;;5040920;28;20547;-68
2022/03/11 03:05:36;;;;;;;8.73;6.50;;;;;;;;;;5054834;28;20045;-68
2022/03/11 03:08:03;;;;;;;8.68;6.60;;;;;;;;;;5054975;28;20057;-68
2022/03/11 03:10:30;;;;;;;8.63;6.63;;;;;;;;;;5054645;28;20500;-68
2022/03/11 03:12:56;;;;;;;10.40;7.05;;;;;;;;;;5055282;28;20049;-68
2022/03/11 03:15:23;;;;;;;10.95;7.00;;;;;;;;;;5054860;28;20049;-68
2022/03/11 03:17:49;;;;;;;8.38;7.00;;;;;;;;;;5054902;28;20139;-68
2022/03/11 03:20:16;;;;;;;9.98;7.20;;;;;;;;;;5051509;28;20099;-68
2022/03/11 03:22:42;;;;;;;9.40;7.47;;;;;;;;;;5036437;28;20044;-68
2022/03/11 03:25:09;;;;;;;8.65;6.85;;;;;;;;;;5054779;28;20041;-68
2022/03/11 03:27:36;;;;;;;8.90;7.03;;;;;;;;;;5054693;28;20052;-68
2022/03/11 03:30:06;;;;;;;9.68;6.38;;;;;;;;;;5054768;28;20041;-68
2022/03/11 03:32:32;;;;;;;9.45;6.65;;;;;;;;;;5054771;28;20102;-68
2022/03/11 03:34:58;;;;;;;8.77;6.30;;;;;;;;;;5054515;28;20094;-68
2022/03/11 03:37:25;;;;;;;10.98;6.47;;;;;;;;;;5054435;28;20049;-68
2022/03/11 03:39:51;;;;;;;8.73;6.10;;;;;;;;;;5054247;28;20455;-68
2022/03/11 03:42:18;;;;;;;7.68;6.35;;;;;;;;;;5054170;28;20111;-68
2022/03/11 03:44:44;;;;;;;10.63;6.65;;;;;;;;;;5054256;28;20167;-68
2022/03/11 03:47:11;;;;;;;9.65;6.75;;;;;;;;;;5054395;28;20048;-68
2022/03/11 03:49:37;;;;;;;8.73;6.57;;;;;;;;;;5054468;28;20049;-68
2022/03/11 03:52:11;;;;;;;7.55;6.13;;;;;;;;;;5053435;28;20083;-68
2022/03/11 03:54:40;;;;;;;7.50;5.65;;;;;;;;;;5054124;28;20056;-68
2022/03/11 03:57:07;;;;;;;9.40;6.53;;;;;;;;;;5053842;28;20053;-68
2022/03/11 03:59:34;;;;;;;9.45;5.90;;;;;;;;;;5054189;28;20037;-68
2022/03/11 04:02:00;;;;;;;8.93;5.80;;;;;;;;;;5054189;28;20053;-68
2022/03/11 04:04:27;;;;;;;6.78;6.03;;;;;;;;;;5053794;28;20048;-68
2022/03/11 04:06:53;;;;;;;7.38;6.05;;;;;;;;;;5053567;28;20060;-68
2022/03/11 04:09:20;;;;;;;6.40;5.35;;;;;;;;;;5053724;28;20049;-68
2022/03/11 04:11:47;;;;;;;7.80;5.53;;;;;;;;;;5053884;28;20118;-68
2022/03/11 04:14:13;;;;;;;7.57;5.13;;;;;;;;;;5053997;28;20436;-68
2022/03/11 04:16:40;;;;;;;8.88;6.20;;;;;;;;;;5053804;28;20040;-68
2022/03/11 04:19:06;;;;;;;9.85;5.53;;;;;;;;;;5053878;28;20571;-68
2022/03/11 04:21:34;;;;;;;8.20;5.43;;;;;;;;;;5042752;28;20041;-68
2022/03/11 04:24:01;;;;;;;7.03;5.40;;;;;;;;;;5053508;28;20045;-68
2022/03/11 04:26:27;;;;;;;8.35;5.93;;;;;;;;;;5053574;28;20045;-68
2022/03/11 04:28:54;;;;;;;8.43;5.55;;;;;;;;;;5053427;28;20095;-68
2022/03/11 04:31:20;;;;;;;7.57;5.65;;;;;;;;;;5053548;28;20045;-68
2022/03/11 04:33:47;;;;;;;6.93;5.03;;;;;;;;;;5053484;28;20124;-68
2022/03/11 04:36:13;;;;;;;8.18;5.40;;;;;;;;;;5053264;28;20045;-68
2022/03/11 04:38:40;;;;;;;10.25;5.30;;;;;;;;;;5053132;28;20037;-68
2022/03/11 04:41:06;;;;;;;11.65;5.72;;;;;;;;;;5053160;28;20100;-68
2022/03/11 04:43:33;;;;;;;6.60;5.15;;;;;;;;;;5053166;28;20049;-68
2022/03/11 04:45:59;;;;;;;9.73;5.55;;;;;;;;;;5053035;28;20049;-68
2022/03/11 04:48:26;;;;;;;10.48;5.63;;;;;;;;;;5053005;28;20131;-68
2022/03/11 04:50:52;;;;;;;10.80;5.68;;;;;;;;;;5053192;28;20049;-68
2022/03/11 04:53:18;;;;;;;9.15;6.05;;;;;;;;;;5053172;28;20082;-68
2022/03/11 04:55:45;;;;;;;7.75;5.45;;;;;;;;;;5052748;28;20045;-68
2022/03/11 04:58:11;;;;;;;8.93;5.10;;;;;;;;;;5052877;28;20041;-69
2022/03/11 05:00:38;;;;;;;8.35;5.60;;;;;;;;;;5052815;28;20048;-68
2022/03/11 05:03:05;;;;;;;7.18;5.28;;;;;;;;;;5052991;28;20083;-68
2022/03/11 05:05:31;;;;;;;7.28;4.97;;;;;;;;;;5052480;28;20049;-68
2022/03/11 05:07:58;;;;;;;8.80;5.65;;;;;;;;;;5052863;28;20056;-68
2022/03/11 05:10:24;;;;;;;9.73;5.30;;;;;;;;;;5052867;28;20057;-68
2022/03/11 05:12:50;;;;;;;7.82;5.30;;;;;;;;;;5052790;28;20100;-68
2022/03/11 05:15:17;;;;;;;11.10;5.97;;;;;;;;;;5052821;28;20053;-68
2022/03/11 05:17:43;;;;;;;6.07;4.50;;;;;;;;;;5052762;28;20052;-68
2022/03/11 05:20:10;;;;;;;6.60;5.70;;;;;;;;;;5049925;28;20116;-68
2022/03/11 05:22:37;;;;;;;7.22;5.00;;;;;;;;;;5047148;28;20045;-68
2022/03/11 05:25:03;;;;;;;9.45;5.75;;;;;;;;;;5052620;28;20091;-68
2022/03/11 05:27:30;;;;;;;8.98;5.55;;;;;;;;;;5052466;28;20122;-68
2022/03/11 05:29:56;;;;;;;8.07;5.20;;;;;;;;;;5052121;28;20452;-68
2022/03/11 05:32:23;;;;;;;9.27;5.18;;;;;;;;;;5052141;28;20048;-68
2022/03/11 05:34:49;;;;;;;8.10;5.70;;;;;;;;;;5052446;28;20053;-68
2022/03/11 05:37:16;;;;;;;9.20;6.07;;;;;;;;;;5052085;28;20071;-68
2022/03/11 05:39:42;;;;;;;10.27;6.32;;;;;;;;;;5052217;28;20052;-68
2022/03/11 05:42:09;;;;;;;9.55;6.22;;;;;;;;;;5051961;28;20049;-68
2022/03/11 05:44:35;;;;;;;10.15;6.00;;;;;;;;;;5051969;28;20053;-68
2022/03/11 05:47:02;;;;;;;8.05;6.30;;;;;;;;;;5052129;28;20102;-68
2022/03/11 05:49:28;;;;;;;10.63;6.30;;;;;;;;;;5052191;28;20102;-68
2022/03/11 05:51:55;;;;;;;10.50;6.88;;;;;;;;;;5052038;28;20099;-68
2022/03/11 05:54:22;;;;;;;10.27;6.47;;;;;;;;;;5051940;28;20045;-68
2022/03/11 05:56:54;;;;;;;9.15;6.07;;;;;;;;;;5051749;28;20057;-68
2022/03/11 05:59:21;;;;;;;11.30;6.40;;;;;;;;;;5052011;28;20053;-68
2022/03/11 06:01:48;;;;;;;10.82;6.80;;;;;;;;;;5051941;28;20067;-68
2022/03/11 06:04:14;;;;;;;13.07;6.82;;;;;;;;;;5052216;28;20044;-68
2022/03/11 06:06:41;;;;;;;10.18;6.75;;;;;;;;;;5051500;28;20049;-68
2022/03/11 06:09:08;;;;;;;8.60;6.60;;;;;;;;;;5051566;28;20048;-68
2022/03/11 06:11:35;;;;;;;10.00;6.85;;;;;;;;;;5051879;28;20068;-68
2022/03/11 06:14:01;;;;;;;8.05;6.43;;;;;;;;;;5051417;28;20057;-68
2022/03/11 06:16:28;;;;;;;13.27;6.80;;;;;;;;;;5051881;28;20052;-68
2022/03/11 06:18:55;;;;;;;9.40;7.43;;;;;;;;;;5051697;28;20140;-68
2022/03/11 06:21:21;;;;;;;11.93;6.40;;;;;;;;;;5043532;28;20053;-68
2022/03/11 06:23:47;;;;;;;11.45;7.13;;;;;;;;;;5051747;28;20098;-68
2022/03/11 06:26:14;;;;;;;11.05;6.80;;;;;;;;;;5051657;28;20094;-68
2022/03/11 06:28:40;;;;;;;10.10;6.80;;;;;;;;;;5051378;28;20098;-68
2022/03/11 06:31:11;;;;;;;11.57;7.55;;;;;;;;;;5051532;28;20049;-68
2022/03/11 06:33:38;;;;;;;13.45;7.22;;;;;;;;;;5051614;28;20128;-68
2022/03/11 06:36:05;;;;;;;10.93;6.70;;;;;;;;;;5051641;28;20053;-68
2022/03/11 06:38:31;;;;;;;10.23;6.70;;;;;;;;;;5051484;28;20122;-68
2022/03/11 06:40:58;;;;;;;9.77;6.35;;;;;;;;;;5051599;28;20045;-68
2022/03/11 06:43:24;;;;;;;10.65;7.13;;;;;;;;;;5051500;28;20056;-68
2022/03/11 06:45:51;;;;;;;10.00;6.93;;;;;;;;;;5051470;28;20052;-68
2022/03/11 06:48:18;;;;;;;11.10;6.82;;;;;;;;;;5051536;28;20057;-68
2022/03/11 06:50:45;;;;;;;9.73;6.23;;;;;;;;;;5051076;28;20094;-68
2022/03/11 06:53:11;;;;;;;14.68;8.02;;;;;;;;;;5051496;28;20448;-68
2022/03/11 06:55:38;;;;;;;12.00;7.55;;;;;;;;;;5051308;28;20049;-68
2022/03/11 06:58:04;;;;;;;9.20;7.35;;;;;;;;;;5051099;28;20045;-68
2022/03/11 07:00:31;;;;;;;10.95;7.47;;;;;;;;;;5051317;28;20122;-68
2022/03/11 07:02:58;;;;;;;11.38;7.13;;;;;;;;;;5051459;28;20048;-68
2022/03/11 07:05:25;;;;;;;12.15;7.55;;;;;;;;;;5050891;28;20072;-69
2022/03/11 07:07:51;;;;;;;11.05;7.50;;;;;;;;;;5050930;28;20045;-68
2022/03/11 07:10:18;;;;;;;10.15;7.10;;;;;;;;;;5051298;28;20118;-68
2022/03/11 07:12:44;;;;;;;12.80;7.50;;;;;;;;;;5051108;28;20049;-68
2022/03/11 07:15:11;;;;;;;11.63;7.07;;;;;;;;;;5051162;28;20386;-68
2022/03/11 07:17:37;;;;;;;14.38;7.60;;;;;;;;;;5050862;28;20045;-68
2022/03/11 07:20:04;;;;;;;14.93;7.63;;;;;;;;;;5049190;28;20128;-68
2022/03/11 07:22:32;;;;;;;10.45;7.45;;;;;;;;;;5045297;28;20373;-68
2022/03/11 07:24:59;;;;;;;10.52;7.82;;;;;;;;;;5042216;28;20041;-69
2022/03/11 07:27:26;;;;;;;12.47;7.73;;;;;;;;;;5033097;28;20045;-69
2022/03/11 07:29:53;;;;;;;11.43;7.30;;;;;;;;;;5034720;28;20283;-69
2022/03/11 07:32:20;;;;;;;9.88;7.20;;;;;;;;;;5053979;28;20517;-69
2022/03/11 07:34:46;;;;;;;13.65;7.80;;;;;;;;;;5052492;28;20075;-69
2022/03/11 07:37:13;;;;;;;13.73;7.10;;;;;;;;;;5036552;28;20050;-68
2022/03/11 07:39:40;;;;;;;9.38;6.85;;;;;;;;;;5054653;28;20049;-68
2022/03/11 07:42:06;;;;;;;11.47;7.03;;;;;;;;;;5054444;28;20118;-69
2022/03/11 07:44:33;;;;;;;11.68;7.40;;;;;;;;;;5054357;28;20099;-69
2022/03/11 07:47:00;;;;;;;11.15;6.57;;;;;;;;;;5054544;28;20053;-69
2022/03/11 07:49:30;;;;;;;8.73;6.72;;;;;;;;;;5054139;28;20052;-69
2022/03/11 07:51:56;;;;;;;9.65;7.10;;;;;;;;;;5047511;28;20057;-69
2022/03/11 07:54:23;;;;;;;9.85;7.13;;;;;;;;;;5038641;28;20100;-68
2022/03/11 07:56:49;;;;;;;8.50;6.82;;;;;;;;;;5036018;28;20119;-69
2022/03/11 07:59:15;;;;;;;11.27;7.80;;;;;;;;;;5053625;28;20045;-69
2022/03/11 08:01:42;;;;;;;10.40;7.22;;;;;;;;;;5051141;28;20049;-68
2022/03/11 08:04:13;;;;;;;11.77;7.07;;;;;;;;;;5042822;28;20045;-68
2022/03/11 08:06:40;;;;;;;9.95;6.95;;;;;;;;;;5053627;28;20056;-68
2022/03/11 08:09:06;;;;;;;12.10;7.68;;;;;;;;;;5053982;28;20048;-69
2022/03/11 08:11:33;;;;;;;9.70;7.20;;;;;;;;;;5054026;28;20079;-69
2022/03/11 08:13:59;;;;;;;11.90;7.82;;;;;;;;;;5053894;28;20049;-69
2022/03/11 08:16:26;;;;;;;10.98;7.63;;;;;;;;;;5045942;28;20053;-69
2022/03/11 08:18:52;;;;;;;13.30;8.05;;;;;;;;;;5035810;28;20053;-69
2022/03/11 08:21:20;;;;;;;11.75;7.68;;;;;;;;;;5050272;28;20425;-69
2022/03/11 08:23:46;;;;;;;13.13;7.40;;;;;;;;;;5054522;28;20107;-71
2022/03/11 08:26:12;;;;;;;10.27;7.25;;;;;;;;;;5045929;28;20287;-71
2022/03/11 08:28:44;;;;;;;11.63;7.65;;;;;;;;;;5041831;28;20076;-70
2022/03/11 08:31:31;;;;;;;9.63;6.25;;;;;;;;;;5051022;28;20586;-70
2022/03/11 08:33:57;;;;;;;10.30;6.88;;;;;;;;;;5039681;28;20052;-70
2022/03/11 08:36:24;;;;;;;12.75;7.53;;;;;;;;;;5031728;28;20053;-70
2022/03/11 08:38:53;;;;;;;11.75;6.88;;;;;;;;;;5032568;28;20497;-71
2022/03/11 08:41:22;;;;;;;10.60;6.95;;;;;;;;;;5045745;28;20060;-71
2022/03/11 08:43:49;;;;;;;9.55;6.75;;;;;;;;;;5042077;28;20077;-71
2022/03/11 08:46:16;;;;;;;9.88;7.40;;;;;;;;;;5048974;28;20487;-71
2022/03/11 08:48:43;;;;;;;10.07;7.35;;;;;;;;;;5053044;28;20080;-71
2022/03/11 08:51:10;;;;;;;11.10;7.32;;;;;;;;;;5053165;28;20057;-72
2022/03/11 08:53:37;;;;;;;8.70;6.65;;;;;;;;;;5053290;28;20060;-72
2022/03/11 08:56:03;;;;;;;10.30;5.85;;;;;;;;;;5052915;28;20500;-72
2022/03/11 08:58:30;;;;;;;7.97;5.43;;;;;;;;;;5052976;28;20103;-72
2022/03/11 09:00:56;;;;;;;8.40;6.07;;;;;;;;;;5047000;28;20394;-72
2022/03/11 09:03:23;;;;;;;10.43;6.07;;;;;;;;;;5033623;28;20476;-72
2022/03/11 09:05:50;;;;;;;7.75;5.88;;;;;;;;;;5040358;28;20060;-71
2022/03/11 09:08:17;;;;;;;8.68;5.53;;;;;;;;;;5030559;28;20045;-72
2022/03/11 09:10:44;;;;;;;8.15;5.28;;;;;;;;;;5032056;28;20052;-73
2022/03/11 09:13:10;;;;;;;7.57;5.28;;;;;;;;;;5031993;28;20456;-73
2022/03/11 09:15:36;;;;;;;6.72;5.38;;;;;;;;;;5032287;28;20053;-73
2022/03/11 09:18:08;;;;;;;6.80;4.05;;;;;;;;;;5052160;28;20055;-74
2022/03/11 09:20:35;;;;;;;8.13;4.88;;;;;;;;;;5041759;28;20081;-74
2022/03/11 09:23:04;;;;;;;6.93;4.38;;;;;;;;;;5050773;28;20051;-73
2022/03/11 09:25:31;;;;;;;7.60;4.28;;;;;;;;;;5051988;28;20090;-74
2022/03/11 09:28:03;;;;;;;7.32;4.55;;;;;;;;;;5052061;28;20045;-74
2022/03/11 09:30:29;;;;;;;5.15;3.90;;;;;;;;;;5046415;28;20110;-74
2022/03/11 09:32:56;;;;;;;5.50;4.20;;;;;;;;;;5049676;28;20103;-77
2022/03/11 09:35:23;;;;;;;6.28;3.92;;;;;;;;;;5033638;28;20053;-76
2022/03/11 09:37:49;;;;;;;4.82;4.10;;;;;;;;;;5031424;28;20272;-77
2022/03/11 09:40:16;;;;;;;5.15;3.70;;;;;;;;;;5031120;28;20099;-75
2022/03/11 09:42:43;;;;;;;8.15;3.72;;;;;;;;;;5031336;28;20053;-74
2022/03/11 09:45:10;;;;;;;6.03;4.18;;;;;;;;;;5031082;28;20505;-74
2022/03/11 09:47:40;;;;;;;7.05;4.20;;;;;;;;;;5031266;28;20049;-73
2022/03/11 09:50:07;;;;;;;5.25;3.55;;;;;;;;;;5030341;28;20136;-73
2022/03/11 09:52:35;;;;;;;6.28;3.95;;;;;;;;;;5031168;28;20489;-72
2022/03/11 09:55:06;;;;;;;5.45;4.07;;;;;;;;;;5049245;28;20107;-74
2022/03/11 09:57:32;;;;;;;4.28;3.63;;;;;;;;;;5041500;28;20126;-73
2022/03/11 09:59:59;;;;;;;6.95;4.40;;;;;;;;;;5051385;28;20045;-74
2022/03/11 10:02:25;;;;;;;6.80;4.95;;;;;;;;;;5050269;28;20444;-74
2022/03/11 10:04:53;;;;;;;6.78;4.90;;;;;;;;;;5051056;28;20095;-74
2022/03/11 10:07:40;;;;;;;6.78;5.43;;;;;;;;;;5050981;28;20102;-74
2022/03/11 10:10:15;;;;;;;5.60;4.80;;;;;;;;;;5051092;28;20049;-74
2022/03/11 10:13:02;;;;;;;7.00;5.05;;;;;;;;;;5051354;28;20080;-73
2022/03/11 10:15:29;;;;;;;8.82;6.20;;;;;;;;;;5035113;28;20551;-73
2022/03/11 10:17:57;;;;;;;6.82;5.45;;;;;;;;;;5030774;28;20053;-73
2022/03/11 10:20:25;;;;;;;;;;;;;;;;;;5035497;28;20054;-73
2022/03/11 10:22:51;;;;;;;;;;;;;;;;;;5045763;28;20356;-73
2022/03/11 10:25:19;;;;;;;8.85;5.63;;;;;;;;;;5038009;28;19924;-74
2022/03/11 10:28:02;;;;;;;7.13;5.72;;;;;;;;;;5051024;28;20118;-74
2022/03/11 10:30:33;;;;;;;7.68;6.35;;;;;;;;;;5051055;28;20106;-74
2022/03/11 10:33:01;;;;;;;7.93;5.68;;;;;;;;;;5036519;28;20497;-74
2022/03/11 10:35:36;;;;;;;7.82;5.97;;;;;;;;;;5048950;28;20045;-73
2022/03/11 10:38:07;;;;;;;9.68;6.18;;;;;;;;;;5028815;28;20045;-72
2022/03/11 10:40:35;;;;;;;8.02;5.50;;;;;;;;;;5036595;28;20049;-73
2022/03/11 10:43:09;;;;;;;7.80;6.05;;;;;;;;;;5051251;28;20452;-73
2022/03/11 10:45:47;;;;;;;6.82;5.72;;;;;;;;;;5032485;28;20076;-73
2022/03/11 10:48:15;;;;;;;8.68;5.47;;;;;;;;;;5044343;28;20045;-73
2022/03/11 10:50:41;;;;;;;8.85;5.97;;;;;;;;;;5041798;28;20103;-74
2022/03/11 10:53:09;;;;;;;7.38;5.63;;;;;;;;;;5043846;28;20501;-73
2022/03/11 10:55:39;;;;;;;10.88;7.07;;;;;;;;;;5030352;28;20046;-75
2022/03/11 10:58:06;;;;;;;9.18;6.00;;;;;;;;;;5045356;28;20497;-74
2022/03/11 11:00:34;;;;;;;7.50;5.97;;;;;;;;;;5050923;28;20045;-73
2022/03/11 11:03:02;;;;;;;8.38;6.10;;;;;;;;;;5054807;28;20056;-71
2022/03/11 11:05:29;;;;;;;8.70;6.38;;;;;;;;;;5035957;28;20077;-72
2022/03/11 11:07:57;;;;;;;9.57;6.37;;;;;;;;;;5032846;28;20056;-73
2022/03/11 11:10:24;;;;;;;10.05;6.53;;;;;;;;;;5043017;28;20087;-73
2022/03/11 11:12:51;;;;;;;8.80;6.10;;;;;;;;;;5054442;28;20102;-73
2022/03/11 11:15:18;;;;;;;8.83;6.07;;;;;;;;;;5054589;28;20393;-72
2022/03/11 11:17:46;;;;;;;8.43;6.13;;;;;;;;;;5054605;28;20336;-72
2022/03/11 11:20:23;;;;;;;7.57;5.82;;;;;;;;;;5051077;28;20096;-73
2022/03/11 11:22:51;;;;;;;8.82;6.10;;;;;;;;;;5036097;28;20064;-72
2022/03/11 11:25:19;;;;;;;8.38;6.03;;;;;;;;;;5033753;28;20099;-72
2022/03/11 11:27:46;;;;;;;10.43;5.95;;;;;;;;;;5034035;28;20072;-71
2022/03/11 11:30:17;;;;;;;9.57;6.43;;;;;;;;;;5037390;28;20107;-72
2022/03/11 11:32:44;;;;;;;8.13;5.95;;;;;;;;;;5051508;28;20179;-71
2022/03/11 11:35:24;;;;;;;13.20;6.28;;;;;;;;;;5054028;28;20268;-71
2022/03/11 11:37:51;;;;;;;11.65;6.43;;;;;;;;;;5052839;28;20056;-72
2022/03/11 11:40:26;;;;;;;10.70;5.70;;;;;;;;;;5054082;28;20092;-72
2022/03/11 11:43:14;;;;;;;7.43;5.47;;;;;;;;;;5048234;28;20103;-73
2022/03/11 11:45:41;;;;;;;10.20;5.60;;;;;;;;;;5044808;28;20051;-73
2022/03/11 11:48:30;;;;;;;6.72;5.43;;;;;;;;;;5033437;28;20049;-73
2022/03/11 11:51:01;;;;;;;9.95;5.75;;;;;;;;;;5033668;28;20049;-72
2022/03/11 11:53:50;;;;;;;6.90;5.25;;;;;;;;;;5045569;28;20110;-72
2022/03/11 11:56:26;;;;;;;9.15;4.90;;;;;;;;;;5050917;28;20053;-72
2022/03/11 11:58:53;;;;;;;9.00;5.28;;;;;;;;;;5053415;28;20089;-72
2022/03/11 12:01:20;;;;;;;;;;;;;;;;;;5054140;28;20045;-72
2022/03/11 12:03:50;;;;;;;10.48;5.40;;;;;;;;;;5053391;28;19925;-71
2022/03/11 12:06:35;;;;;;;8.15;5.88;;;;;;;;;;5053449;28;20550;-73
2022/03/11 12:09:02;;;;;;;8.85;4.78;;;;;;;;;;5053397;28;20133;-73
2022/03/11 12:11:36;;;;;;;8.05;5.35;;;;;;;;;;5053371;28;20464;-73
2022/03/11 12:14:02;;;;;;;7.63;5.57;;;;;;;;;;5052822;28;20053;-73
2022/03/11 12:16:49;;;;;;;6.30;5.13;;;;;;;;;;5053265;28;20553;-73
2022/03/11 12:19:34;;;;;;;6.40;5.10;;;;;;;;;;5052934;28;20107;-72
2022/03/11 12:22:20;;;;;;;9.32;4.95;;;;;;;;;;5032136;28;20503;-72
2022/03/11 12:25:05;;;;;;;6.72;4.63;;;;;;;;;;5038969;28;20044;-71
2022/03/11 12:27:50;;;;;;;6.85;4.70;;;;;;;;;;5049937;28;20057;-72
2022/03/11 12:30:17;;;;;;;7.65;4.45;;;;;;;;;;5027449;28;20118;-72
2022/03/11 12:32:43;;;;;;;5.20;4.20;;;;;;;;;;5050781;28;20797;-71
2022/03/11 12:35:11;;;;;;;8.25;4.55;;;;;;;;;;5043733;28;20049;-71
2022/03/11 12:37:37;;;;;;;6.65;4.15;;;;;;;;;;5032836;28;20049;-71
2022/03/11 12:40:08;;;;;;;5.10;3.90;;;;;;;;;;5032515;28;20092;-71
2022/03/11 12:42:36;;;;;;;5.55;4.00;;;;;;;;;;5032625;28;20049;-71
2022/03/11 12:45:02;;;;;;;7.28;4.60;;;;;;;;;;5032375;28;20713;-71
2022/03/11 12:47:37;;;;;;;6.93;4.15;;;;;;;;;;5032202;28;20489;-70
2022/03/11 12:50:05;;;;;;;5.50;4.28;;;;;;;;;;5032181;28;20095;-70
2022/03/11 12:52:35;;;;;;;4.45;3.75;;;;;;;;;;5031898;28;20053;-70
2022/03/11 12:55:02;;;;;;;6.90;4.13;;;;;;;;;;5032380;28;20053;-69
2022/03/11 12:57:28;;;;;;;5.28;3.55;;;;;;;;;;5035152;28;20049;-70
2022/03/11 12:59:55;;;;;;;5.07;3.70;;;;;;;;;;5033129;28;20099;-69
2022/03/11 13:02:21;;;;;;;7.00;4.05;;;;;;;;;;5032069;28;20135;-69
2022/03/11 13:04:48;;;;;;;6.22;3.53;;;;;;;;;;5032254;28;20048;-68
2022/03/11 13:07:29;;;;;;;5.85;3.80;;;;;;;;;;5031952;28;20135;-68
2022/03/11 13:10:15;;;;;;;5.85;3.70;;;;;;;;;;5047814;28;20077;-68
2022/03/11 13:12:42;;;;;;;6.20;4.32;;;;;;;;;;5051999;28;20053;-68
2022/03/11 13:15:10;;;;;;;5.93;3.80;;;;;;;;;;5051979;28;20390;-68
2022/03/11 13:17:44;;;;;;;5.35;3.50;;;;;;;;;;5037399;28;20156;-67
2022/03/11 13:20:46;;;;;;;6.85;3.47;;;;;;;;;;5048049;28;20151;-68
2022/03/11 13:23:12;;;;;;;7.47;3.70;;;;;;;;;;5056925;28;20056;-68
2022/03/11 13:25:41;;;;;;;6.03;3.38;;;;;;;;;;5054664;28;20540;-68
2022/03/11 13:28:08;;;;;;;7.05;2.97;;;;;;;;;;5024641;28;20098;-68
2022/03/11 13:30:36;;;;;;;8.77;3.20;;;;;;;;;;5041521;28;20068;-69
2022/03/11 13:33:13;;;;;;;6.82;2.85;;;;;;;;;;5048631;28;20290;-69
2022/03/11 13:35:40;;;;;;;2.83;2.10;;;;;;;;;;5051680;28;20053;-69
2022/03/11 13:38:06;;;;;;;5.05;2.30;;;;;;;;;;5037575;28;20049;-68
2022/03/11 13:40:37;;;;;;;6.40;2.20;;;;;;;;;;5038996;28;20052;-70
2022/03/11 13:43:04;;;;;;;2.90;1.65;;;;;;;;;;5050067;28;20050;-69
2022/03/11 13:45:33;;;;;;;4.95;2.33;;;;;;;;;;5032946;28;20049;-69
2022/03/11 13:48:01;;;;;;;4.75;2.63;;;;;;;;;;5031478;28;20560;-70
2022/03/11 13:50:27;;;;;;;4.50;2.10;;;;;;;;;;5031687;28;20104;-71
2022/03/11 13:52:57;;;;;;;5.22;2.33;;;;;;;;;;5031482;28;20100;-71
2022/03/11 13:55:32;;;;;;;3.42;2.05;;;;;;;;;;5031811;28;20112;-70
2022/03/11 13:58:31;;;;;;;3.55;2.05;;;;;;;;;;5031305;28;20485;-70
2022/03/11 14:01:07;;;;;;;4.03;2.10;;;;;;;;;;5023967;28;20049;-71
2022/03/11 14:03:41;;;;;;;3.17;1.90;;;;;;;;;;5031494;28;20136;-72
2022/03/11 14:06:07;;;;;;;4.40;1.92;;;;;;;;;;5031093;28;20057;-71
2022/03/11 14:08:54;;;;;;;2.42;1.70;;;;;;;;;;5022836;28;20136;-71
2022/03/11 14:11:21;;;;;;;5.40;1.67;;;;;;;;;;5025843;28;20057;-71
2022/03/11 14:13:47;;;;;;;4.70;1.70;;;;;;;;;;5019883;28;20050;-71
2022/03/11 14:16:14;;;;;;;3.15;1.98;;;;;;;;;;5041759;28;20112;-70
2022/03/11 14:18:41;;;;;;;3.92;1.80;;;;;;;;;;5030206;28;20053;-71
2022/03/11 14:21:09;;;;;;;6.60;2.30;;;;;;;;;;5030903;28;20115;-71
2022/03/11 14:23:36;;;;;;;4.68;1.92;;;;;;;;;;5028045;28;20053;-73
2022/03/11 14:26:02;;;;;;;3.65;1.77;;;;;;;;;;5019022;28;20080;-72
2022/03/11 14:28:29;;;;;;;4.38;1.55;;;;;;;;;;5031145;28;20452;-72
2022/03/11 14:30:55;;;;;;;2.83;1.23;;;;;;;;;;5031226;28;20449;-72
2022/03/11 14:33:22;;;;;;;4.57;1.60;;;;;;;;;;5028893;28;20056;-75
2022/03/11 14:35:48;;;;;;;3.17;1.45;;;;;;;;;;5033690;28;20111;-74
2022/03/11 14:38:15;;;;;;;3.95;1.10;;;;;;;;;;5045263;28;20055;-74
2022/03/11 14:40:41;;;;;;;2.50;1.00;;;;;;;;;;5045689;28;20095;-74
2022/03/11 14:43:08;;;;;;;4.00;0.90;;;;;;;;;;5034976;28;20045;-73
2022/03/11 14:45:34;;;;;;;2.88;0.73;;;;;;;;;;5053094;28;20084;-72